createdAt,value
2019-03-10T00:01:39.952Z,54.85
2019-03-10T00:04:09.972Z,54.98
2019-03-10T00:06:39.896Z,53.07
2019-03-10T00:09:11.566Z,53.05
2019-03-10T00:11:41.682Z,52.84
2019-03-10T00:14:11.733Z,52.75
2019-03-10T00:16:41.820Z,53.73
2019-03-10T00:19:12.014Z,54.23
2019-03-10T00:21:42.339Z,53.14
2019-03-10T00:24:12.345Z,53.67
2019-03-10T00:26:42.614Z,54.46
2019-03-10T00:29:12.078Z,54.20
2019-03-10T00:31:42.505Z,54.82
2019-03-10T00:34:12.734Z,55.74
2019-03-10T00:36:43.324Z,55.74
2019-03-10T00:40:19.541Z,55.45
2019-03-10T00:44:32.329Z,55.96
2019-03-10T00:48:23.376Z,55.60
2019-03-10T00:52:06.980Z,56.09
2019-03-10T00:54:37.070Z,56.60
2019-03-10T00:57:07.693Z,56.31
2019-03-10T00:59:38.003Z,56.08
2019-03-10T01:02:08.229Z,55.75
2019-03-10T01:04:38.343Z,55.59
2019-03-10T01:07:08.777Z,55.34
2019-03-10T01:09:39.004Z,55.64
2019-03-10T01:12:09.965Z,56.78
2019-03-10T01:14:40.363Z,57.15
2019-03-10T01:17:11.320Z,56.56
2019-03-10T01:19:41.776Z,56.99
2019-03-10T01:22:11.864Z,56.89
2019-03-10T01:24:42.219Z,56.41
2019-03-10T01:27:12.321Z,56.24
2019-03-10T01:29:42.531Z,56.72
2019-03-10T01:32:53.688Z,55.85
2019-03-10T01:35:36.512Z,55.85
2019-03-10T01:38:06.833Z,56.65
2019-03-10T01:40:36.797Z,55.99
2019-03-10T01:43:06.881Z,55.87
2019-03-10T01:45:36.724Z,55.16
2019-03-10T01:48:06.588Z,54.97
2019-03-10T01:50:36.705Z,55.14
2019-03-10T01:53:06.362Z,55.14
2019-03-10T01:55:36.953Z,54.53
2019-03-10T01:58:06.907Z,54.29
2019-03-10T02:00:36.729Z,54.60
2019-03-10T02:03:07.058Z,53.28
2019-03-10T02:05:36.948Z,53.52
2019-03-10T02:08:06.840Z,54.22
2019-03-10T02:10:36.972Z,54.29
2019-03-10T02:13:07.126Z,54.44
2019-03-10T02:15:37.371Z,55.35
2019-03-10T02:18:07.529Z,54.72
2019-03-10T02:20:38.566Z,54.71
2019-03-10T02:23:07.655Z,54.71
2019-03-10T02:25:37.344Z,54.42
2019-03-10T02:28:07.495Z,53.75
2019-03-10T02:30:37.480Z,56.64
2019-03-10T02:33:07.901Z,57.40
2019-03-10T02:35:37.946Z,57.40
2019-03-10T02:38:07.877Z,56.01
2019-03-10T02:40:37.955Z,55.26
2019-03-10T02:43:07.911Z,55.05
2019-03-10T02:45:37.961Z,55.46
2019-03-10T02:48:08.187Z,56.42
2019-03-10T02:50:38.318Z,55.67
2019-03-10T02:53:08.712Z,54.77
2019-03-10T02:55:38.598Z,55.81
2019-03-10T02:58:07.634Z,56.50
2019-03-10T03:00:37.706Z,56.50
2019-03-10T03:03:07.496Z,57.74
2019-03-10T03:05:37.520Z,57.13
2019-03-10T03:08:07.680Z,57.13
2019-03-10T03:10:36.947Z,57.21
2019-03-10T03:13:06.850Z,56.58
2019-03-10T03:15:36.844Z,56.20
2019-03-10T03:18:06.804Z,57.64
2019-03-10T03:20:36.689Z,58.09
2019-03-10T03:23:06.699Z,59.20
2019-03-10T03:25:35.619Z,60.41
2019-03-10T03:28:04.743Z,61.59
2019-03-10T03:30:34.642Z,62.89
2019-03-10T03:33:03.686Z,61.30
2019-03-10T03:36:00.141Z,63.87
2019-03-10T03:38:58.098Z,63.72
2019-03-10T03:41:28.320Z,60.68
2019-03-10T03:43:58.866Z,62.11
2019-03-10T03:46:28.725Z,64.29
2019-03-10T03:48:59.366Z,63.67
2019-03-10T03:51:29.643Z,65.18
2019-03-10T03:53:58.765Z,64.27
2019-03-10T03:56:29.788Z,61.79
2019-03-10T03:59:00.892Z,61.48
2019-03-10T04:01:34.742Z,63.55
2019-03-10T04:04:04.509Z,64.97
2019-03-10T04:06:34.659Z,66.68
2019-03-10T04:09:06.018Z,66.68
2019-03-10T04:11:36.561Z,63.26
2019-03-10T04:14:06.948Z,63.73
2019-03-10T04:16:36.604Z,65.83
2019-03-10T04:19:06.278Z,67.61
2019-03-10T04:21:35.881Z,68.39
2019-03-10T04:24:05.595Z,67.13
2019-03-10T04:26:35.348Z,67.51
2019-03-10T04:29:05.559Z,68.02
2019-03-10T04:31:35.172Z,68.43
2019-03-10T04:34:08.032Z,68.43
2019-03-10T04:36:37.892Z,70.01
2019-03-10T04:39:08.773Z,69.55
2019-03-10T04:41:38.705Z,69.84
2019-03-10T04:44:08.692Z,69.75
2019-03-10T04:46:39.514Z,71.30
2019-03-10T04:49:10.571Z,71.73
2019-03-10T04:51:39.800Z,72.00
2019-03-10T04:54:09.663Z,73.42
2019-03-10T04:56:51.415Z,74.43
2019-03-10T04:59:20.851Z,74.95
2019-03-10T05:01:50.522Z,74.55
2019-03-10T05:04:20.317Z,74.25
2019-03-10T05:06:52.819Z,74.25
2019-03-10T05:09:22.540Z,76.47
2019-03-10T05:11:51.525Z,75.70
2019-03-10T05:14:21.318Z,75.13
2019-03-10T05:16:50.889Z,75.13
2019-03-10T05:19:20.813Z,73.31
2019-03-10T05:21:50.586Z,73.78
2019-03-10T05:24:19.732Z,75.63
2019-03-10T05:26:49.334Z,75.23
2019-03-10T05:29:19.320Z,74.21
2019-03-10T05:31:49.115Z,75.41
2019-03-10T05:34:19.068Z,75.40
2019-03-10T05:36:49.433Z,75.85
2019-03-10T05:39:19.548Z,75.36
2019-03-10T05:41:48.572Z,73.17
2019-03-10T05:44:17.606Z,73.44
2019-03-10T05:46:46.791Z,74.36
2019-03-10T05:49:16.502Z,73.60
2019-03-10T05:51:46.572Z,74.70
2019-03-10T05:54:16.593Z,74.10
2019-03-10T05:56:45.806Z,74.10
2019-03-10T05:59:15.502Z,73.83
2019-03-10T06:01:45.335Z,74.17
2019-03-10T06:04:15.520Z,73.91
2019-03-10T06:06:44.932Z,74.50
2019-03-10T06:09:14.838Z,74.32
2019-03-10T06:11:44.679Z,73.53
2019-03-10T06:14:13.816Z,73.91
2019-03-10T06:16:43.746Z,75.16
2019-03-10T06:19:13.755Z,75.15
2019-03-10T06:21:43.558Z,75.08
2019-03-10T06:24:13.727Z,80.39
2019-03-10T06:26:43.565Z,80.39
2019-03-10T06:29:12.712Z,81.66
2019-03-10T06:31:42.668Z,81.66
2019-03-10T06:34:12.901Z,84.52
2019-03-10T06:36:42.867Z,83.87
2019-03-10T06:39:12.733Z,83.04
2019-03-10T06:41:41.792Z,80.91
2019-03-10T06:44:12.431Z,79.82
2019-03-10T06:46:42.818Z,79.43
2019-03-10T06:49:13.314Z,79.43
2019-03-10T06:51:43.635Z,78.99
2019-03-10T06:54:13.290Z,78.99
2019-03-10T06:56:43.546Z,78.45
2019-03-10T06:59:13.699Z,79.40
2019-03-10T07:01:42.828Z,78.73
2019-03-10T07:04:13.618Z,78.39
2019-03-10T07:06:43.678Z,79.58
2019-03-10T07:09:13.900Z,79.21
2019-03-10T07:11:43.669Z,79.58
2019-03-10T07:14:13.589Z,78.81
2019-03-10T07:16:43.280Z,78.88
2019-03-10T07:19:13.677Z,78.87
2019-03-10T07:21:43.318Z,78.36
2019-03-10T07:24:13.584Z,78.03
2019-03-10T07:26:43.275Z,78.03
2019-03-10T07:29:21.583Z,78.53
2019-03-10T07:32:09.428Z,77.59
2019-03-10T07:34:54.642Z,77.34
2019-03-10T07:37:37.940Z,77.34
2019-03-10T07:40:33.894Z,78.23
2019-03-10T07:43:16.333Z,78.76
2019-03-10T07:46:10.304Z,78.60
2019-03-10T07:48:59.819Z,77.50
2019-03-10T07:51:49.127Z,77.68
2019-03-10T07:54:36.913Z,78.37
2019-03-10T07:57:25.662Z,78.01
2019-03-10T08:00:12.720Z,79.04
2019-03-10T08:03:05.185Z,77.74
2019-03-10T08:05:54.591Z,79.71
2019-03-10T08:08:52.557Z,79.20
2019-03-10T08:11:29.065Z,78.56
2019-03-10T08:14:33.765Z,80.04
2019-03-10T08:17:38.701Z,79.66
2019-03-10T08:20:26.483Z,78.53
2019-03-10T08:23:14.929Z,78.32
2019-03-10T08:26:20.028Z,78.32
2019-03-10T08:29:12.624Z,77.61
2019-03-10T08:32:02.004Z,77.96
2019-03-10T08:34:40.144Z,77.85
2019-03-10T08:37:42.600Z,77.74
2019-03-10T08:40:27.765Z,77.47
2019-03-10T08:43:08.579Z,77.47
2019-03-10T08:45:53.816Z,76.86
2019-03-10T08:48:34.097Z,76.86
2019-03-10T08:51:39.914Z,77.65
2019-03-10T08:54:15.672Z,78.31
2019-03-10T08:57:08.863Z,78.14
2019-03-10T09:00:07.545Z,76.73
2019-03-10T09:02:52.560Z,75.90
2019-03-10T09:05:41.122Z,77.29
2019-03-10T09:08:30.902Z,76.84
2019-03-10T09:11:19.468Z,76.11
2019-03-10T09:14:01.597Z,77.37
2019-03-10T09:16:48.306Z,77.37
2019-03-10T09:19:36.874Z,75.35
2019-03-10T09:22:16.868Z,75.28
2019-03-10T09:24:57.487Z,77.23
2019-03-10T09:28:02.531Z,74.16
2019-03-10T09:30:51.305Z,74.16
2019-03-10T09:33:39.544Z,77.56
2019-03-10T09:36:36.120Z,75.73
2019-03-10T09:39:27.512Z,74.87
2019-03-10T09:42:32.660Z,75.21
2019-03-10T09:45:19.037Z,75.21
2019-03-10T09:48:01.040Z,75.34
2019-03-10T09:50:44.909Z,76.22
2019-03-10T09:53:44.695Z,76.55
2019-03-10T09:56:37.272Z,75.33
2019-03-10T09:59:13.164Z,75.44
2019-03-10T10:02:02.303Z,75.45
2019-03-10T10:04:58.655Z,75.94
2019-03-10T10:07:42.025Z,75.64
2019-03-10T10:10:48.320Z,76.38
2019-03-10T10:13:44.540Z,74.88
2019-03-10T10:16:39.974Z,75.19
2019-03-10T10:19:29.058Z,74.30
2019-03-10T10:23:49.640Z,75.51
2019-03-10T10:27:24.256Z,74.26
2019-03-10T10:31:14.737Z,74.26
2019-03-10T10:40:20.059Z,71.39
2019-03-10T10:46:28.355Z,71.39
2019-03-10T10:49:16.632Z,71.42
2019-03-10T10:52:09.651Z,71.42
2019-03-10T10:55:00.011Z,69.32
2019-03-10T10:57:50.556Z,69.35
2019-03-10T11:00:31.587Z,69.80
2019-03-10T11:03:24.513Z,71.42
2019-03-10T11:06:19.703Z,71.87
2019-03-10T11:09:08.339Z,71.87
2019-03-10T11:12:11.589Z,70.89
2019-03-10T11:15:06.591Z,72.33
2019-03-10T11:17:46.128Z,72.33
2019-03-10T11:20:33.746Z,69.30
2019-03-10T11:23:22.977Z,69.17
2019-03-10T11:26:11.954Z,65.60
2019-03-10T11:28:53.587Z,64.98
2019-03-10T11:31:43.320Z,61.21
2019-03-10T11:34:23.598Z,61.86
2019-03-10T11:37:29.254Z,61.86
2019-03-10T11:40:29.822Z,62.08
2019-03-10T11:43:19.829Z,60.92
2019-03-10T11:46:48.520Z,60.74
2019-03-10T11:49:29.546Z,62.84
2019-03-10T11:52:19.745Z,57.16
2019-03-10T11:55:06.690Z,51.81
2019-03-10T11:57:56.797Z,46.69
2019-03-10T12:00:42.685Z,48.31
2019-03-10T12:03:38.203Z,43.51
2019-03-10T12:06:30.685Z,44.98
2019-03-10T12:09:18.289Z,44.98
2019-03-10T12:11:48.316Z,44.06
2019-03-10T12:14:19.107Z,45.54
2019-03-10T12:16:49.927Z,45.76
2019-03-10T12:19:20.569Z,46.77
2019-03-10T12:21:50.866Z,48.34
2019-03-10T12:24:30.392Z,44.73
2019-03-10T12:27:02.567Z,41.10
2019-03-10T12:29:32.516Z,40.85
2019-03-10T12:32:02.667Z,40.70
2019-03-10T12:34:32.792Z,40.70
2019-03-10T12:37:02.705Z,43.22
2019-03-10T12:39:32.517Z,41.55
2019-03-10T12:42:02.443Z,45.17
2019-03-10T12:44:32.661Z,46.76
2019-03-10T12:47:02.746Z,46.76
2019-03-10T12:49:32.895Z,47.15
2019-03-10T12:52:02.738Z,48.31
2019-03-10T12:54:33.781Z,45.55
2019-03-10T12:57:03.562Z,42.54
2019-03-10T12:59:33.466Z,39.11
2019-03-10T13:02:03.998Z,38.60
2019-03-10T13:04:34.130Z,38.60
2019-03-10T13:07:11.837Z,38.35
2019-03-10T13:09:44.519Z,39.57
2019-03-10T13:12:20.057Z,35.01
2019-03-10T13:15:02.090Z,35.01
2019-03-10T13:17:37.336Z,33.45
2019-03-10T13:20:10.589Z,36.74
2019-03-10T13:22:40.268Z,35.20
2019-03-10T13:25:10.339Z,32.92
2019-03-10T13:27:40.813Z,33.24
2019-03-10T13:30:13.888Z,32.37
2019-03-10T13:32:44.793Z,31.52
2019-03-10T13:35:15.811Z,31.62
2019-03-10T13:37:45.990Z,30.02
2019-03-10T13:40:16.454Z,29.46
2019-03-10T13:42:46.540Z,31.06
2019-03-10T13:45:16.139Z,31.06
2019-03-10T13:47:47.126Z,31.93
2019-03-10T13:50:17.890Z,31.15
2019-03-10T13:52:48.578Z,30.03
2019-03-10T13:55:18.035Z,30.76
2019-03-10T13:57:48.854Z,31.06
2019-03-10T14:00:22.675Z,30.45
2019-03-10T14:02:52.040Z,30.71
2019-03-10T14:05:22.454Z,30.88
2019-03-10T14:07:52.585Z,30.03
2019-03-10T14:10:21.747Z,30.42
2019-03-10T14:12:52.779Z,30.29
2019-03-10T14:15:22.910Z,29.97
2019-03-10T14:17:53.334Z,30.32
2019-03-10T14:20:23.315Z,30.94
2019-03-10T14:22:53.520Z,32.35
2019-03-10T14:25:23.746Z,34.31
2019-03-10T14:27:54.757Z,34.31
2019-03-10T14:30:24.866Z,35.41
2019-03-10T14:32:55.811Z,35.14
2019-03-10T14:35:25.825Z,34.19
2019-03-10T14:37:55.889Z,33.50
2019-03-10T14:40:26.569Z,33.01
2019-03-10T14:42:55.869Z,33.31
2019-03-10T14:45:25.706Z,32.55
2019-03-10T14:47:56.324Z,31.91
2019-03-10T14:50:27.381Z,31.70
2019-03-10T14:52:58.244Z,30.94
2019-03-10T14:55:29.588Z,30.94
2019-03-10T14:58:01.010Z,31.09
2019-03-10T15:00:31.103Z,32.60
2019-03-10T15:03:01.326Z,32.73
2019-03-10T15:05:31.650Z,34.00
2019-03-10T15:08:01.559Z,36.93
2019-03-10T15:10:31.612Z,41.02
2019-03-10T15:13:01.034Z,42.66
2019-03-10T15:15:30.988Z,42.43
2019-03-10T15:18:03.044Z,38.27
2019-03-10T15:20:34.639Z,38.66
2019-03-10T15:23:03.971Z,37.47
2019-03-10T15:25:34.135Z,37.48
2019-03-10T15:28:04.354Z,37.81
2019-03-10T15:30:34.229Z,37.20
2019-03-10T15:33:04.139Z,37.27
2019-03-10T15:35:34.357Z,37.31
2019-03-10T15:38:04.170Z,37.60
2019-03-10T15:40:34.072Z,38.47
2019-03-10T15:43:03.909Z,39.20
2019-03-10T15:45:34.929Z,40.34
2019-03-10T15:48:05.414Z,42.79
2019-03-10T15:50:35.682Z,49.64
2019-03-10T15:53:05.014Z,49.47
2019-03-10T15:55:37.682Z,49.47
2019-03-10T15:58:09.704Z,48.14
2019-03-10T16:00:40.660Z,47.54
2019-03-10T16:03:11.373Z,46.21
2019-03-10T16:05:42.698Z,44.28
2019-03-10T16:08:13.185Z,44.28
2019-03-10T16:10:45.136Z,42.18
2019-03-10T16:13:15.615Z,41.72
2019-03-10T16:15:44.965Z,41.05
2019-03-10T16:18:16.370Z,40.05
2019-03-10T16:20:47.428Z,40.05
2019-03-10T16:23:18.513Z,38.63
2019-03-10T16:25:47.884Z,38.50
2019-03-10T16:28:17.900Z,36.75
2019-03-10T16:30:48.357Z,35.36
2019-03-10T16:33:18.618Z,33.76
2019-03-10T16:35:48.754Z,33.65
2019-03-10T16:38:18.985Z,33.15
2019-03-10T16:40:49.313Z,34.28
2019-03-10T16:43:19.325Z,33.37
2019-03-10T16:45:49.529Z,34.17
2019-03-10T16:48:19.285Z,33.99
2019-03-10T16:50:49.484Z,33.79
2019-03-10T16:53:20.615Z,34.23
2019-03-10T16:56:02.091Z,34.23
2019-03-10T16:58:24.009Z,34.70
2019-03-10T17:00:53.591Z,34.47
2019-03-10T17:03:25.556Z,34.75
2019-03-10T17:05:56.068Z,34.94
2019-03-10T17:08:26.560Z,35.90
2019-03-10T17:10:56.282Z,36.81
2019-03-10T17:13:26.576Z,36.81
2019-03-10T17:15:56.717Z,35.96
2019-03-10T17:18:29.804Z,35.73
2019-03-10T17:21:00.866Z,36.02
2019-03-10T17:23:31.544Z,35.24
2019-03-10T17:26:03.127Z,35.09
2019-03-10T17:28:33.990Z,35.52
2019-03-10T17:31:05.322Z,34.96
2019-03-10T17:33:36.122Z,34.67
2019-03-10T17:36:07.031Z,34.99
2019-03-10T17:38:38.679Z,34.58
2019-03-10T17:41:09.326Z,34.29
2019-03-10T17:43:40.316Z,34.82
2019-03-10T17:46:11.473Z,34.73
2019-03-10T17:48:42.938Z,35.12
2019-03-10T17:51:14.537Z,34.76
2019-03-10T17:53:46.475Z,36.04
2019-03-10T17:56:19.963Z,36.29
2019-03-10T17:58:50.958Z,36.29
2019-03-10T18:01:22.010Z,35.81
2019-03-10T18:03:52.758Z,35.88
2019-03-10T18:06:23.319Z,36.00
2019-03-10T18:08:54.978Z,36.29
2019-03-10T18:11:27.138Z,36.29
2019-03-10T18:13:57.553Z,37.32
2019-03-10T18:16:26.692Z,37.97
2019-03-10T18:18:56.471Z,38.24
2019-03-10T18:21:27.535Z,37.27
2019-03-10T18:23:57.895Z,36.25
2019-03-10T18:26:30.034Z,36.25
2019-03-10T18:29:01.614Z,39.10
2019-03-10T18:31:32.316Z,40.41
2019-03-10T18:34:03.406Z,42.86
2019-03-10T18:36:34.383Z,42.25
2019-03-10T18:40:03.567Z,40.89
2019-03-10T18:43:24.965Z,40.89
2019-03-10T18:47:03.185Z,41.24
2019-03-10T18:51:27.038Z,41.35
2019-03-10T18:54:30.491Z,42.11
2019-03-10T18:57:54.272Z,41.56
2019-03-10T19:01:43.771Z,51.14
2019-03-10T19:05:42.658Z,51.14
2019-03-10T19:09:42.890Z,58.17
2019-03-10T19:13:08.242Z,62.44
2019-03-10T19:16:43.248Z,63.52
2019-03-10T19:23:37.647Z,64.40
2019-03-10T19:27:17.727Z,62.15
2019-03-10T19:30:52.343Z,62.15
2019-03-10T19:39:01.147Z,60.40
2019-03-10T19:41:57.188Z,57.26
2019-03-10T19:45:04.215Z,57.26
2019-03-10T19:48:50.947Z,55.96
2019-03-10T19:56:18.937Z,52.62
2019-03-10T19:59:15.537Z,50.39
2019-03-10T20:03:32.493Z,49.31
2019-03-10T20:12:00.745Z,47.49
2019-03-10T20:19:45.966Z,47.31
2019-03-10T20:23:32.023Z,46.68
2019-03-10T20:37:52.177Z,46.20
2019-03-10T20:42:30.754Z,46.54
2019-03-10T20:46:43.647Z,46.50
2019-03-10T20:50:08.747Z,44.27
2019-03-10T20:54:06.276Z,44.27
2019-03-10T20:57:28.221Z,44.21
2019-03-10T21:09:08.411Z,42.04
2019-03-10T21:13:13.673Z,42.04
2019-03-10T21:15:44.651Z,42.55
2019-03-10T21:18:13.937Z,42.17
2019-03-10T21:20:45.749Z,42.31
2019-03-10T21:23:16.725Z,41.97
2019-03-10T21:25:48.261Z,41.41
2019-03-10T21:28:18.733Z,40.63
2019-03-10T21:30:49.575Z,39.71
2019-03-10T21:33:20.018Z,39.61
2019-03-10T21:35:51.120Z,39.50
2019-03-10T21:38:22.052Z,39.06
2019-03-10T21:40:54.075Z,39.15
2019-03-10T21:43:25.699Z,39.54
2019-03-10T21:45:56.285Z,39.29
2019-03-10T21:48:26.695Z,38.73
2019-03-10T21:50:56.706Z,38.34
2019-03-10T21:53:26.744Z,38.47
2019-03-10T21:55:58.980Z,38.47
2019-03-10T21:58:29.597Z,37.97
2019-03-10T22:00:58.518Z,39.38
2019-03-10T22:03:30.351Z,38.68
2019-03-10T22:06:01.966Z,38.96
2019-03-10T22:08:33.350Z,38.96
2019-03-10T22:11:05.000Z,40.09
2019-03-10T22:13:46.108Z,40.30
2019-03-10T22:16:08.173Z,40.23
2019-03-10T22:18:38.868Z,40.40
2019-03-10T22:21:09.138Z,40.34
2019-03-10T22:23:39.946Z,40.48
2019-03-10T22:26:09.865Z,40.29
2019-03-10T22:28:40.939Z,40.27
2019-03-10T22:31:11.787Z,40.90
2019-03-10T22:33:41.633Z,40.24
2019-03-10T22:36:12.353Z,41.01
2019-03-10T22:38:42.889Z,41.28
2019-03-10T22:41:13.345Z,41.56
2019-03-10T22:43:43.572Z,41.02
2019-03-10T22:46:12.886Z,40.71
2019-03-10T22:48:43.578Z,40.36
2019-03-10T22:51:13.522Z,41.46
2019-03-10T22:53:43.161Z,41.07
2019-03-10T22:56:13.134Z,41.07
2019-03-10T22:58:43.712Z,41.73
2019-03-10T23:01:14.169Z,42.23
2019-03-10T23:03:44.627Z,43.07
2019-03-10T23:06:14.282Z,43.07
2019-03-10T23:08:44.467Z,43.06
2019-03-10T23:11:16.147Z,43.53
2019-03-10T23:13:46.219Z,43.53
2019-03-10T23:16:19.320Z,43.33
2019-03-10T23:18:49.552Z,43.63
2019-03-10T23:21:19.595Z,43.08
2019-03-10T23:23:49.981Z,43.08
2019-03-10T23:26:20.146Z,42.86
2019-03-10T23:28:51.328Z,44.11
2019-03-10T23:31:21.428Z,43.35
2019-03-10T23:33:52.432Z,43.30
2019-03-10T23:36:22.314Z,42.22
2019-03-10T23:38:52.838Z,42.22
2019-03-10T23:41:23.894Z,42.70
2019-03-10T23:43:54.471Z,42.15
2019-03-10T23:46:26.324Z,41.71
2019-03-10T23:48:57.317Z,41.71
2019-03-10T23:51:27.843Z,41.22
2019-03-10T23:53:58.485Z,40.96
2019-03-10T23:56:28.077Z,40.74
2019-03-10T23:58:57.698Z,40.92
